sensor_id;sensor_type;location;lat;lon;timestamp;P1;durP1;ratioP1;P2;durP2;ratioP2
29848;SDS011;16728;50.832;5.590;2024-03-02T00:02:42;3.90;;;1.40;;
29848;SDS011;16728;50.832;5.590;2024-03-02T00:05:49;2.03;;;1.10;;
29848;SDS011;16728;50.832;5.590;2024-03-02T00:08:55;3.30;;;1.13;;
29848;SDS011;16728;50.832;5.590;2024-03-02T00:12:02;2.78;;;1.10;;
29848;SDS011;16728;50.832;5.590;2024-03-02T00:15:05;2.25;;;1.17;;
29848;SDS011;16728;50.832;5.590;2024-03-02T00:18:12;2.67;;;1.10;;
29848;SDS011;16728;50.832;5.590;2024-03-02T00:21:15;1.77;;;1.00;;
29848;SDS011;16728;50.832;5.590;2024-03-02T00:24:31;3.33;;;1.25;;
29848;SDS011;16728;50.832;5.590;2024-03-02T00:27:34;3.83;;;1.50;;
29848;SDS011;16728;50.832;5.590;2024-03-02T00:33:48;6.05;;;1.52;;
29848;SDS011;16728;50.832;5.590;2024-03-02T00:36:51;4.13;;;1.10;;
29848;SDS011;16728;50.832;5.590;2024-03-02T00:39:53;1.23;;;0.60;;
29848;SDS011;16728;50.832;5.590;2024-03-02T00:42:56;0.88;;;0.60;;
29848;SDS011;16728;50.832;5.590;2024-03-02T00:45:59;1.38;;;0.60;;
29848;SDS011;16728;50.832;5.590;2024-03-02T00:52:04;1.33;;;0.63;;
29848;SDS011;16728;50.832;5.590;2024-03-02T00:55:07;1.02;;;0.47;;
29848;SDS011;16728;50.832;5.590;2024-03-02T00:58:10;0.43;;;0.43;;
29848;SDS011;16728;50.832;5.590;2024-03-02T01:01:12;0.75;;;0.63;;
29848;SDS011;16728;50.832;5.590;2024-03-02T01:04:14;1.92;;;0.60;;
29848;SDS011;16728;50.832;5.590;2024-03-02T01:07:17;2.13;;;0.73;;
29848;SDS011;16728;50.832;5.590;2024-03-02T01:10:19;1.08;;;0.70;;
29848;SDS011;16728;50.832;5.590;2024-03-02T01:13:22;1.27;;;0.60;;
29848;SDS011;16728;50.832;5.590;2024-03-02T01:19:27;3.80;;;0.60;;
29848;SDS011;16728;50.832;5.590;2024-03-02T01:22:29;0.95;;;0.60;;
29848;SDS011;16728;50.832;5.590;2024-03-02T01:25:31;0.63;;;0.52;;
29848;SDS011;16728;50.832;5.590;2024-03-02T01:28:33;1.80;;;0.50;;
29848;SDS011;16728;50.832;5.590;2024-03-02T01:31:36;2.15;;;0.52;;
29848;SDS011;16728;50.832;5.590;2024-03-02T01:34:38;2.67;;;0.70;;
29848;SDS011;16728;50.832;5.590;2024-03-02T01:37:41;0.95;;;0.60;;
29848;SDS011;16728;50.832;5.590;2024-03-02T01:40:43;0.50;;;0.50;;
29848;SDS011;16728;50.832;5.590;2024-03-02T01:43:48;0.80;;;0.50;;
29848;SDS011;16728;50.832;5.590;2024-03-02T01:46:50;1.55;;;0.68;;
29848;SDS011;16728;50.832;5.590;2024-03-02T01:49:53;0.52;;;0.45;;
29848;SDS011;16728;50.832;5.590;2024-03-02T01:52:55;2.40;;;0.55;;
29848;SDS011;16728;50.832;5.590;2024-03-02T01:55:58;2.07;;;0.90;;
29848;SDS011;16728;50.832;5.590;2024-03-02T01:59:00;0.80;;;0.60;;
29848;SDS011;16728;50.832;5.590;2024-03-02T02:02:05;1.83;;;0.90;;
29848;SDS011;16728;50.832;5.590;2024-03-02T02:05:09;0.85;;;0.60;;
29848;SDS011;16728;50.832;5.590;2024-03-02T02:08:11;0.43;;;0.43;;
29848;SDS011;16728;50.832;5.590;2024-03-02T02:11:16;1.25;;;0.50;;
29848;SDS011;16728;50.832;5.590;2024-03-02T02:14:19;1.27;;;0.60;;
29848;SDS011;16728;50.832;5.590;2024-03-02T02:17:21;0.50;;;0.40;;
29848;SDS011;16728;50.832;5.590;2024-03-02T02:20:24;1.50;;;0.60;;
29848;SDS011;16728;50.832;5.590;2024-03-02T02:23:26;0.85;;;0.40;;
29848;SDS011;16728;50.832;5.590;2024-03-02T02:26:29;0.45;;;0.43;;
29848;SDS011;16728;50.832;5.590;2024-03-02T02:29:31;0.40;;;0.40;;
29848;SDS011;16728;50.832;5.590;2024-03-02T02:32:33;0.40;;;0.40;;
29848;SDS011;16728;50.832;5.590;2024-03-02T02:35:35;0.57;;;0.47;;
29848;SDS011;16728;50.832;5.590;2024-03-02T02:38:39;2.28;;;0.50;;
29848;SDS011;16728;50.832;5.590;2024-03-02T02:41:42;2.00;;;1.02;;
29848;SDS011;16728;50.832;5.590;2024-03-02T02:44:44;0.35;;;0.35;;
29848;SDS011;16728;50.832;5.590;2024-03-02T02:47:46;0.50;;;0.50;;
29848;SDS011;16728;50.832;5.590;2024-03-02T02:50:49;1.30;;;0.63;;
29848;SDS011;16728;50.832;5.590;2024-03-02T02:53:51;0.88;;;0.88;;
29848;SDS011;16728;50.832;5.590;2024-03-02T02:56:53;0.65;;;0.55;;
29848;SDS011;16728;50.832;5.590;2024-03-02T02:59:56;0.50;;;0.40;;
29848;SDS011;16728;50.832;5.590;2024-03-02T03:02:58;0.40;;;0.40;;
29848;SDS011;16728;50.832;5.590;2024-03-02T03:06:00;0.52;;;0.50;;
29848;SDS011;16728;50.832;5.590;2024-03-02T03:09:03;0.40;;;0.40;;
29848;SDS011;16728;50.832;5.590;2024-03-02T03:12:05;0.75;;;0.50;;
29848;SDS011;16728;50.832;5.590;2024-03-02T03:15:08;1.55;;;0.50;;
29848;SDS011;16728;50.832;5.590;2024-03-02T03:18:11;0.82;;;0.40;;
29848;SDS011;16728;50.832;5.590;2024-03-02T03:21:13;0.40;;;0.40;;
29848;SDS011;16728;50.832;5.590;2024-03-02T03:24:15;0.65;;;0.40;;
29848;SDS011;16728;50.832;5.590;2024-03-02T03:27:18;0.50;;;0.47;;
29848;SDS011;16728;50.832;5.590;2024-03-02T03:30:21;1.50;;;0.60;;
29848;SDS011;16728;50.832;5.590;2024-03-02T03:33:23;1.53;;;0.50;;
29848;SDS011;16728;50.832;5.590;2024-03-02T03:36:26;0.82;;;0.50;;
29848;SDS011;16728;50.832;5.590;2024-03-02T03:39:28;0.50;;;0.40;;
29848;SDS011;16728;50.832;5.590;2024-03-02T03:42:30;1.53;;;0.60;;
29848;SDS011;16728;50.832;5.590;2024-03-02T03:45:33;0.50;;;0.50;;
29848;SDS011;16728;50.832;5.590;2024-03-02T03:48:35;0.57;;;0.47;;
29848;SDS011;16728;50.832;5.590;2024-03-02T03:51:38;0.80;;;0.38;;
29848;SDS011;16728;50.832;5.590;2024-03-02T03:54:40;0.45;;;0.45;;
29848;SDS011;16728;50.832;5.590;2024-03-02T03:57:44;1.48;;;0.73;;
29848;SDS011;16728;50.832;5.590;2024-03-02T04:00:46;0.40;;;0.40;;
29848;SDS011;16728;50.832;5.590;2024-03-02T04:03:49;0.93;;;0.60;;
29848;SDS011;16728;50.832;5.590;2024-03-02T04:06:51;0.52;;;0.50;;
29848;SDS011;16728;50.832;5.590;2024-03-02T04:09:53;1.88;;;0.70;;
29848;SDS011;16728;50.832;5.590;2024-03-02T04:12:56;1.88;;;0.50;;
29848;SDS011;16728;50.832;5.590;2024-03-02T04:15:58;0.93;;;0.50;;
29848;SDS011;16728;50.832;5.590;2024-03-02T04:19:00;1.40;;;0.90;;
29848;SDS011;16728;50.832;5.590;2024-03-02T04:22:03;1.48;;;0.70;;
29848;SDS011;16728;50.832;5.590;2024-03-02T04:25:18;1.80;;;0.50;;
29848;SDS011;16728;50.832;5.590;2024-03-02T04:28:21;0.90;;;0.60;;
29848;SDS011;16728;50.832;5.590;2024-03-02T04:31:23;0.83;;;0.53;;
29848;SDS011;16728;50.832;5.590;2024-03-02T04:34:25;1.63;;;0.55;;
29848;SDS011;16728;50.832;5.590;2024-03-02T04:37:28;0.80;;;0.50;;
29848;SDS011;16728;50.832;5.590;2024-03-02T04:40:30;0.30;;;0.30;;
29848;SDS011;16728;50.832;5.590;2024-03-02T04:43:33;2.03;;;0.82;;
29848;SDS011;16728;50.832;5.590;2024-03-02T04:46:36;1.42;;;0.52;;
29848;SDS011;16728;50.832;5.590;2024-03-02T04:49:38;1.35;;;0.68;;
29848;SDS011;16728;50.832;5.590;2024-03-02T04:52:41;0.73;;;0.60;;
29848;SDS011;16728;50.832;5.590;2024-03-02T04:55:44;0.70;;;0.70;;
29848;SDS011;16728;50.832;5.590;2024-03-02T04:59:07;1.95;;;0.50;;
29848;SDS011;16728;50.832;5.590;2024-03-02T05:02:09;1.77;;;0.70;;
29848;SDS011;16728;50.832;5.590;2024-03-02T05:05:12;1.17;;;0.40;;
29848;SDS011;16728;50.832;5.590;2024-03-02T05:08:16;1.75;;;0.70;;
29848;SDS011;16728;50.832;5.590;2024-03-02T05:11:18;0.63;;;0.50;;
29848;SDS011;16728;50.832;5.590;2024-03-02T05:14:38;3.00;;;0.70;;
29848;SDS011;16728;50.832;5.590;2024-03-02T05:17:41;2.83;;;0.60;;
29848;SDS011;16728;50.832;5.590;2024-03-02T05:20:47;1.92;;;0.70;;
29848;SDS011;16728;50.832;5.590;2024-03-02T05:23:49;1.52;;;0.70;;
29848;SDS011;16728;50.832;5.590;2024-03-02T05:26:51;2.22;;;0.80;;
29848;SDS011;16728;50.832;5.590;2024-03-02T05:29:54;2.35;;;0.55;;
29848;SDS011;16728;50.832;5.590;2024-03-02T05:32:56;2.85;;;0.90;;
29848;SDS011;16728;50.832;5.590;2024-03-02T05:35:58;2.30;;;0.70;;
29848;SDS011;16728;50.832;5.590;2024-03-02T05:39:01;2.92;;;0.65;;
29848;SDS011;16728;50.832;5.590;2024-03-02T05:42:06;4.00;;;0.60;;
29848;SDS011;16728;50.832;5.590;2024-03-02T05:45:08;1.58;;;0.55;;
29848;SDS011;16728;50.832;5.590;2024-03-02T05:48:11;1.08;;;0.50;;
29848;SDS011;16728;50.832;5.590;2024-03-02T05:51:13;1.52;;;1.00;;
29848;SDS011;16728;50.832;5.590;2024-03-02T05:54:15;3.35;;;0.75;;
29848;SDS011;16728;50.832;5.590;2024-03-02T05:57:17;2.10;;;0.80;;
29848;SDS011;16728;50.832;5.590;2024-03-02T06:00:38;2.85;;;1.00;;
29848;SDS011;16728;50.832;5.590;2024-03-02T06:03:40;3.03;;;0.50;;
29848;SDS011;16728;50.832;5.590;2024-03-02T06:06:43;1.05;;;0.55;;
29848;SDS011;16728;50.832;5.590;2024-03-02T06:09:45;8.07;;;4.57;;
29848;SDS011;16728;50.832;5.590;2024-03-02T06:12:49;4.15;;;2.65;;
29848;SDS011;16728;50.832;5.590;2024-03-02T06:15:52;7.40;;;4.20;;
29848;SDS011;16728;50.832;5.590;2024-03-02T06:18:54;2.47;;;1.20;;
29848;SDS011;16728;50.832;5.590;2024-03-02T06:21:59;1.98;;;0.80;;
29848;SDS011;16728;50.832;5.590;2024-03-02T06:25:01;3.67;;;1.10;;
29848;SDS011;16728;50.832;5.590;2024-03-02T06:28:03;2.28;;;0.80;;
29848;SDS011;16728;50.832;5.590;2024-03-02T06:31:06;1.87;;;0.73;;
29848;SDS011;16728;50.832;5.590;2024-03-02T06:34:09;2.20;;;0.68;;
29848;SDS011;16728;50.832;5.590;2024-03-02T06:37:11;3.00;;;0.90;;
29848;SDS011;16728;50.832;5.590;2024-03-02T06:40:14;2.80;;;0.80;;
29848;SDS011;16728;50.832;5.590;2024-03-02T06:43:16;3.63;;;1.10;;
29848;SDS011;16728;50.832;5.590;2024-03-02T06:46:18;3.47;;;0.90;;
29848;SDS011;16728;50.832;5.590;2024-03-02T06:49:21;2.47;;;0.77;;
29848;SDS011;16728;50.832;5.590;2024-03-02T06:52:23;3.47;;;1.10;;
29848;SDS011;16728;50.832;5.590;2024-03-02T06:55:25;4.35;;;1.13;;
29848;SDS011;16728;50.832;5.590;2024-03-02T06:58:30;3.85;;;0.70;;
29848;SDS011;16728;50.832;5.590;2024-03-02T07:01:32;2.55;;;0.80;;
29848;SDS011;16728;50.832;5.590;2024-03-02T07:04:34;4.78;;;0.60;;
29848;SDS011;16728;50.832;5.590;2024-03-02T07:07:37;2.42;;;0.90;;
29848;SDS011;16728;50.832;5.590;2024-03-02T07:10:39;2.70;;;0.70;;
29848;SDS011;16728;50.832;5.590;2024-03-02T07:13:41;3.03;;;0.65;;
29848;SDS011;16728;50.832;5.590;2024-03-02T07:16:43;1.85;;;0.80;;
29848;SDS011;16728;50.832;5.590;2024-03-02T07:19:46;4.65;;;0.73;;
29848;SDS011;16728;50.832;5.590;2024-03-02T07:22:48;2.50;;;0.80;;
29848;SDS011;16728;50.832;5.590;2024-03-02T07:25:51;3.03;;;0.75;;
29848;SDS011;16728;50.832;5.590;2024-03-02T07:28:58;2.70;;;0.70;;
29848;SDS011;16728;50.832;5.590;2024-03-02T07:32:01;2.77;;;0.80;;
29848;SDS011;16728;50.832;5.590;2024-03-02T07:35:03;11.13;;;8.50;;
29848;SDS011;16728;50.832;5.590;2024-03-02T07:38:05;5.38;;;2.42;;
29848;SDS011;16728;50.832;5.590;2024-03-02T07:41:11;2.30;;;1.10;;
29848;SDS011;16728;50.832;5.590;2024-03-02T07:44:13;6.68;;;0.90;;
29848;SDS011;16728;50.832;5.590;2024-03-02T07:47:16;3.77;;;0.73;;
29848;SDS011;16728;50.832;5.590;2024-03-02T07:50:18;5.80;;;1.05;;
29848;SDS011;16728;50.832;5.590;2024-03-02T07:53:20;2.88;;;0.95;;
29848;SDS011;16728;50.832;5.590;2024-03-02T07:56:23;3.20;;;0.80;;
29848;SDS011;16728;50.832;5.590;2024-03-02T07:59:25;1.95;;;0.60;;
29848;SDS011;16728;50.832;5.590;2024-03-02T08:02:27;4.25;;;0.82;;
29848;SDS011;16728;50.832;5.590;2024-03-02T08:05:30;2.22;;;0.90;;
29848;SDS011;16728;50.832;5.590;2024-03-02T08:08:32;0.83;;;0.50;;
29848;SDS011;16728;50.832;5.590;2024-03-02T08:11:34;2.42;;;0.90;;
29848;SDS011;16728;50.832;5.590;2024-03-02T08:14:36;4.78;;;1.08;;
29848;SDS011;16728;50.832;5.590;2024-03-02T08:17:39;2.03;;;1.00;;
29848;SDS011;16728;50.832;5.590;2024-03-02T08:20:46;4.68;;;1.15;;
29848;SDS011;16728;50.832;5.590;2024-03-02T08:23:49;3.15;;;0.98;;
29848;SDS011;16728;50.832;5.590;2024-03-02T08:26:52;2.80;;;0.88;;
29848;SDS011;16728;50.832;5.590;2024-03-02T08:29:55;1.33;;;0.80;;
29848;SDS011;16728;50.832;5.590;2024-03-02T08:32:57;4.93;;;1.38;;
29848;SDS011;16728;50.832;5.590;2024-03-02T08:35:59;3.53;;;0.90;;
29848;SDS011;16728;50.832;5.590;2024-03-02T08:39:02;3.08;;;1.05;;
29848;SDS011;16728;50.832;5.590;2024-03-02T08:42:04;8.30;;;1.17;;
29848;SDS011;16728;50.832;5.590;2024-03-02T08:45:07;3.47;;;1.13;;
29848;SDS011;16728;50.832;5.590;2024-03-02T08:48:11;4.13;;;1.00;;
29848;SDS011;16728;50.832;5.590;2024-03-02T08:51:13;3.55;;;1.00;;
29848;SDS011;16728;50.832;5.590;2024-03-02T08:54:15;4.70;;;0.95;;
29848;SDS011;16728;50.832;5.590;2024-03-02T08:57:18;4.22;;;1.05;;
29848;SDS011;16728;50.832;5.590;2024-03-02T09:00:20;5.38;;;1.15;;
29848;SDS011;16728;50.832;5.590;2024-03-02T09:03:22;5.80;;;1.20;;
29848;SDS011;16728;50.832;5.590;2024-03-02T09:06:25;4.07;;;0.90;;
29848;SDS011;16728;50.832;5.590;2024-03-02T09:09:27;2.38;;;0.90;;
29848;SDS011;16728;50.832;5.590;2024-03-02T09:12:29;2.15;;;0.90;;
29848;SDS011;16728;50.832;5.590;2024-03-02T09:15:31;4.30;;;1.10;;
29848;SDS011;16728;50.832;5.590;2024-03-02T09:18:37;4.10;;;1.85;;
29848;SDS011;16728;50.832;5.590;2024-03-02T09:21:39;4.35;;;1.00;;
29848;SDS011;16728;50.832;5.590;2024-03-02T09:24:42;2.70;;;0.90;;
29848;SDS011;16728;50.832;5.590;2024-03-02T09:27:44;6.28;;;0.93;;
29848;SDS011;16728;50.832;5.590;2024-03-02T09:30:46;5.68;;;0.88;;
29848;SDS011;16728;50.832;5.590;2024-03-02T09:33:48;10.13;;;0.90;;
29848;SDS011;16728;50.832;5.590;2024-03-02T09:36:51;3.90;;;0.93;;
29848;SDS011;16728;50.832;5.590;2024-03-02T09:39:54;4.65;;;1.00;;
29848;SDS011;16728;50.832;5.590;2024-03-02T09:42:56;5.15;;;1.10;;
29848;SDS011;16728;50.832;5.590;2024-03-02T09:45:58;3.75;;;0.88;;
29848;SDS011;16728;50.832;5.590;2024-03-02T09:49:10;3.50;;;1.63;;
29848;SDS011;16728;50.832;5.590;2024-03-02T09:52:13;4.05;;;0.82;;
29848;SDS011;16728;50.832;5.590;2024-03-02T09:55:16;4.40;;;1.10;;
29848;SDS011;16728;50.832;5.590;2024-03-02T09:58:21;4.70;;;1.95;;
29848;SDS011;16728;50.832;5.590;2024-03-02T10:01:23;4.88;;;1.60;;
29848;SDS011;16728;50.832;5.590;2024-03-02T10:04:29;4.90;;;1.20;;
29848;SDS011;16728;50.832;5.590;2024-03-02T10:07:33;5.30;;;1.20;;
29848;SDS011;16728;50.832;5.590;2024-03-02T10:10:36;6.05;;;1.40;;
29848;SDS011;16728;50.832;5.590;2024-03-02T10:13:41;2.67;;;0.80;;
29848;SDS011;16728;50.832;5.590;2024-03-02T10:16:44;3.58;;;0.85;;
29848;SDS011;16728;50.832;5.590;2024-03-02T10:19:46;4.57;;;0.90;;
29848;SDS011;16728;50.832;5.590;2024-03-02T10:22:49;3.83;;;1.05;;
29848;SDS011;16728;50.832;5.590;2024-03-02T10:25:51;4.90;;;1.15;;
29848;SDS011;16728;50.832;5.590;2024-03-02T10:28:58;2.22;;;0.98;;
29848;SDS011;16728;50.832;5.590;2024-03-02T10:32:02;2.70;;;1.03;;
29848;SDS011;16728;50.832;5.590;2024-03-02T10:35:13;3.75;;;0.90;;
29848;SDS011;16728;50.832;5.590;2024-03-02T10:38:17;6.53;;;1.20;;
29848;SDS011;16728;50.832;5.590;2024-03-02T10:41:19;4.77;;;1.30;;
29848;SDS011;16728;50.832;5.590;2024-03-02T10:44:24;3.17;;;1.10;;
29848;SDS011;16728;50.832;5.590;2024-03-02T10:50:31;7.55;;;1.23;;
29848;SDS011;16728;50.832;5.590;2024-03-02T10:53:33;5.38;;;1.40;;
29848;SDS011;16728;50.832;5.590;2024-03-02T10:56:39;6.28;;;1.50;;
29848;SDS011;16728;50.832;5.590;2024-03-02T10:59:49;3.72;;;1.10;;
29848;SDS011;16728;50.832;5.590;2024-03-02T11:02:57;5.22;;;0.88;;
29848;SDS011;16728;50.832;5.590;2024-03-02T11:06:00;4.47;;;1.15;;
29848;SDS011;16728;50.832;5.590;2024-03-02T11:09:02;3.83;;;1.30;;
29848;SDS011;16728;50.832;5.590;2024-03-02T11:12:13;5.07;;;1.27;;
29848;SDS011;16728;50.832;5.590;2024-03-02T11:15:19;4.68;;;1.00;;
29848;SDS011;16728;50.832;5.590;2024-03-02T11:18:23;6.05;;;1.20;;
29848;SDS011;16728;50.832;5.590;2024-03-02T11:21:25;5.10;;;1.37;;
29848;SDS011;16728;50.832;5.590;2024-03-02T11:24:28;3.78;;;1.13;;
29848;SDS011;16728;50.832;5.590;2024-03-02T11:30:51;3.50;;;1.20;;
29848;SDS011;16728;50.832;5.590;2024-03-02T11:33:53;2.80;;;1.15;;
29848;SDS011;16728;50.832;5.590;2024-03-02T11:36:56;1.67;;;0.83;;
29848;SDS011;16728;50.832;5.590;2024-03-02T11:40:00;3.97;;;1.08;;
29848;SDS011;16728;50.832;5.590;2024-03-02T11:43:03;4.13;;;0.93;;
29848;SDS011;16728;50.832;5.590;2024-03-02T11:46:08;3.55;;;1.15;;
29848;SDS011;16728;50.832;5.590;2024-03-02T11:49:14;2.63;;;0.80;;
29848;SDS011;16728;50.832;5.590;2024-03-02T11:52:17;3.00;;;0.90;;
29848;SDS011;16728;50.832;5.590;2024-03-02T11:55:20;8.48;;;1.20;;
29848;SDS011;16728;50.832;5.590;2024-03-02T11:58:23;1.70;;;0.85;;
29848;SDS011;16728;50.832;5.590;2024-03-02T12:01:27;3.63;;;0.95;;
29848;SDS011;16728;50.832;5.590;2024-03-02T12:04:31;3.30;;;1.33;;
29848;SDS011;16728;50.832;5.590;2024-03-02T12:07:33;4.63;;;1.92;;
29848;SDS011;16728;50.832;5.590;2024-03-02T12:10:36;4.15;;;0.90;;
29848;SDS011;16728;50.832;5.590;2024-03-02T12:13:39;3.38;;;0.90;;
29848;SDS011;16728;50.832;5.590;2024-03-02T12:16:44;5.72;;;1.33;;
29848;SDS011;16728;50.832;5.590;2024-03-02T12:19:47;4.25;;;1.40;;
29848;SDS011;16728;50.832;5.590;2024-03-02T12:22:50;3.38;;;1.00;;
29848;SDS011;16728;50.832;5.590;2024-03-02T12:25:53;4.25;;;1.20;;
29848;SDS011;16728;50.832;5.590;2024-03-02T12:28:56;2.63;;;0.90;;
29848;SDS011;16728;50.832;5.590;2024-03-02T12:31:59;6.80;;;0.90;;
29848;SDS011;16728;50.832;5.590;2024-03-02T12:35:04;5.07;;;1.02;;
29848;SDS011;16728;50.832;5.590;2024-03-02T12:38:06;7.93;;;1.30;;
29848;SDS011;16728;50.832;5.590;2024-03-02T12:41:08;3.92;;;1.15;;
29848;SDS011;16728;50.832;5.590;2024-03-02T12:44:11;4.13;;;0.90;;
29848;SDS011;16728;50.832;5.590;2024-03-02T12:47:13;3.15;;;0.90;;
29848;SDS011;16728;50.832;5.590;2024-03-02T12:50:16;4.13;;;0.85;;
29848;SDS011;16728;50.832;5.590;2024-03-02T12:53:18;2.05;;;1.02;;
29848;SDS011;16728;50.832;5.590;2024-03-02T12:56:21;5.33;;;1.23;;
29848;SDS011;16728;50.832;5.590;2024-03-02T12:59:23;3.47;;;0.95;;
29848;SDS011;16728;50.832;5.590;2024-03-02T13:02:28;1.73;;;0.73;;
29848;SDS011;16728;50.832;5.590;2024-03-02T13:05:31;2.08;;;0.90;;
29848;SDS011;16728;50.832;5.590;2024-03-02T13:08:34;3.28;;;1.05;;
29848;SDS011;16728;50.832;5.590;2024-03-02T13:11:36;2.15;;;0.95;;
29848;SDS011;16728;50.832;5.590;2024-03-02T13:14:39;1.00;;;0.80;;
29848;SDS011;16728;50.832;5.590;2024-03-02T13:17:41;2.22;;;1.00;;
29848;SDS011;16728;50.832;5.590;2024-03-02T13:20:43;1.92;;;0.77;;
29848;SDS011;16728;50.832;5.590;2024-03-02T13:23:45;2.85;;;1.00;;
29848;SDS011;16728;50.832;5.590;2024-03-02T13:26:48;2.40;;;0.60;;
29848;SDS011;16728;50.832;5.590;2024-03-02T13:29:50;3.75;;;0.85;;
29848;SDS011;16728;50.832;5.590;2024-03-02T13:32:52;1.95;;;0.60;;
29848;SDS011;16728;50.832;5.590;2024-03-02T13:35:55;2.20;;;0.80;;
29848;SDS011;16728;50.832;5.590;2024-03-02T13:38:57;1.23;;;0.90;;
29848;SDS011;16728;50.832;5.590;2024-03-02T13:41:59;1.05;;;0.70;;
29848;SDS011;16728;50.832;5.590;2024-03-02T13:45:10;3.03;;;0.85;;
29848;SDS011;16728;50.832;5.590;2024-03-02T13:51:19;2.50;;;0.73;;
29848;SDS011;16728;50.832;5.590;2024-03-02T13:54:21;1.85;;;0.90;;
29848;SDS011;16728;50.832;5.590;2024-03-02T13:57:23;2.75;;;0.60;;
29848;SDS011;16728;50.832;5.590;2024-03-02T14:00:27;1.73;;;0.82;;
29848;SDS011;16728;50.832;5.590;2024-03-02T14:03:30;2.13;;;0.68;;
29848;SDS011;16728;50.832;5.590;2024-03-02T14:06:33;2.77;;;0.60;;
29848;SDS011;16728;50.832;5.590;2024-03-02T14:09:35;1.95;;;0.60;;
29848;SDS011;16728;50.832;5.590;2024-03-02T14:12:38;1.90;;;0.70;;
29848;SDS011;16728;50.832;5.590;2024-03-02T14:15:40;2.10;;;0.95;;
29848;SDS011;16728;50.832;5.590;2024-03-02T14:18:43;1.40;;;0.90;;
29848;SDS011;16728;50.832;5.590;2024-03-02T14:21:45;1.88;;;0.80;;
29848;SDS011;16728;50.832;5.590;2024-03-02T14:24:48;1.00;;;0.60;;
29848;SDS011;16728;50.832;5.590;2024-03-02T14:27:51;1.77;;;0.82;;
29848;SDS011;16728;50.832;5.590;2024-03-02T14:31:13;1.98;;;0.70;;
29848;SDS011;16728;50.832;5.590;2024-03-02T14:34:15;1.50;;;0.88;;
29848;SDS011;16728;50.832;5.590;2024-03-02T14:37:18;1.20;;;0.77;;
29848;SDS011;16728;50.832;5.590;2024-03-02T14:40:20;1.10;;;0.77;;
29848;SDS011;16728;50.832;5.590;2024-03-02T14:43:23;1.40;;;0.90;;
29848;SDS011;16728;50.832;5.590;2024-03-02T14:46:25;1.40;;;0.77;;
29848;SDS011;16728;50.832;5.590;2024-03-02T14:49:31;4.68;;;1.02;;
29848;SDS011;16728;50.832;5.590;2024-03-02T14:52:37;1.65;;;0.90;;
29848;SDS011;16728;50.832;5.590;2024-03-02T14:55:41;1.80;;;0.93;;
29848;SDS011;16728;50.832;5.590;2024-03-02T14:58:44;2.50;;;0.90;;
29848;SDS011;16728;50.832;5.590;2024-03-02T15:01:46;1.83;;;1.02;;
29848;SDS011;16728;50.832;5.590;2024-03-02T15:04:49;1.00;;;0.80;;
29848;SDS011;16728;50.832;5.590;2024-03-02T15:07:52;1.83;;;1.02;;
29848;SDS011;16728;50.832;5.590;2024-03-02T15:10:54;4.22;;;1.02;;
29848;SDS011;16728;50.832;5.590;2024-03-02T15:14:01;2.25;;;1.10;;
29848;SDS011;16728;50.832;5.590;2024-03-02T15:17:04;3.25;;;1.50;;
29848;SDS011;16728;50.832;5.590;2024-03-02T15:20:06;2.13;;;1.23;;
29848;SDS011;16728;50.832;5.590;2024-03-02T15:23:24;1.38;;;1.15;;
29848;SDS011;16728;50.832;5.590;2024-03-02T15:26:36;1.65;;;1.13;;
29848;SDS011;16728;50.832;5.590;2024-03-02T15:29:39;1.65;;;1.00;;
29848;SDS011;16728;50.832;5.590;2024-03-02T15:32:44;3.85;;;1.35;;
29848;SDS011;16728;50.832;5.590;2024-03-02T15:35:46;2.83;;;1.50;;
29848;SDS011;16728;50.832;5.590;2024-03-02T15:38:49;2.55;;;1.40;;
29848;SDS011;16728;50.832;5.590;2024-03-02T15:41:51;3.13;;;1.50;;
29848;SDS011;16728;50.832;5.590;2024-03-02T15:44:54;4.05;;;1.33;;
29848;SDS011;16728;50.832;5.590;2024-03-02T15:47:56;2.08;;;1.23;;
29848;SDS011;16728;50.832;5.590;2024-03-02T15:50:59;1.40;;;1.03;;
29848;SDS011;16728;50.832;5.590;2024-03-02T15:54:06;4.93;;;2.00;;
29848;SDS011;16728;50.832;5.590;2024-03-02T15:57:47;2.25;;;1.10;;
29848;SDS011;16728;50.832;5.590;2024-03-02T16:00:49;2.45;;;1.48;;
29848;SDS011;16728;50.832;5.590;2024-03-02T16:07:32;2.13;;;1.20;;
29848;SDS011;16728;50.832;5.590;2024-03-02T16:10:34;2.58;;;1.20;;
29848;SDS011;16728;50.832;5.590;2024-03-02T16:13:37;1.45;;;1.10;;
29848;SDS011;16728;50.832;5.590;2024-03-02T16:16:39;2.45;;;1.08;;
29848;SDS011;16728;50.832;5.590;2024-03-02T16:19:51;2.00;;;1.30;;
29848;SDS011;16728;50.832;5.590;2024-03-02T16:23:11;3.88;;;1.40;;
29848;SDS011;16728;50.832;5.590;2024-03-02T16:26:29;1.65;;;1.20;;
29848;SDS011;16728;50.832;5.590;2024-03-02T16:29:31;2.13;;;1.80;;
29848;SDS011;16728;50.832;5.590;2024-03-02T16:32:42;2.88;;;1.70;;
29848;SDS011;16728;50.832;5.590;2024-03-02T16:35:50;3.33;;;1.60;;
29848;SDS011;16728;50.832;5.590;2024-03-02T16:42:32;4.72;;;2.22;;
29848;SDS011;16728;50.832;5.590;2024-03-02T16:45:36;6.47;;;2.95;;
29848;SDS011;16728;50.832;5.590;2024-03-02T16:48:39;3.95;;;1.90;;
29848;SDS011;16728;50.832;5.590;2024-03-02T16:51:42;4.13;;;2.30;;
29848;SDS011;16728;50.832;5.590;2024-03-02T16:54:48;4.78;;;2.50;;
29848;SDS011;16728;50.832;5.590;2024-03-02T16:57:51;5.20;;;2.05;;
29848;SDS011;16728;50.832;5.590;2024-03-02T17:01:12;6.32;;;3.42;;
29848;SDS011;16728;50.832;5.590;2024-03-02T17:07:42;8.95;;;4.15;;
29848;SDS011;16728;50.832;5.590;2024-03-02T17:10:45;7.15;;;2.72;;
29848;SDS011;16728;50.832;5.590;2024-03-02T17:13:47;3.63;;;2.40;;
29848;SDS011;16728;50.832;5.590;2024-03-02T17:16:53;2.90;;;1.60;;
29848;SDS011;16728;50.832;5.590;2024-03-02T17:19:55;5.65;;;3.50;;
29848;SDS011;16728;50.832;5.590;2024-03-02T17:22:58;8.40;;;2.28;;
29848;SDS011;16728;50.832;5.590;2024-03-02T17:26:06;4.32;;;2.00;;
29848;SDS011;16728;50.832;5.590;2024-03-02T17:29:24;3.38;;;1.88;;
29848;SDS011;16728;50.832;5.590;2024-03-02T17:32:26;4.80;;;2.60;;
29848;SDS011;16728;50.832;5.590;2024-03-02T17:38:32;3.53;;;1.60;;
29848;SDS011;16728;50.832;5.590;2024-03-02T17:41:56;8.02;;;1.45;;
29848;SDS011;16728;50.832;5.590;2024-03-02T17:52:12;6.20;;;5.30;;
29848;SDS011;16728;50.832;5.590;2024-03-02T17:55:15;2.70;;;2.20;;
29848;SDS011;16728;50.832;5.590;2024-03-02T17:58:20;3.25;;;2.00;;
29848;SDS011;16728;50.832;5.590;2024-03-02T18:01:22;3.95;;;3.55;;
29848;SDS011;16728;50.832;5.590;2024-03-02T18:04:24;4.13;;;2.00;;
29848;SDS011;16728;50.832;5.590;2024-03-02T18:07:27;2.90;;;1.92;;
29848;SDS011;16728;50.832;5.590;2024-03-02T18:14:30;5.38;;;3.70;;
29848;SDS011;16728;50.832;5.590;2024-03-02T18:17:33;5.18;;;3.05;;
29848;SDS011;16728;50.832;5.590;2024-03-02T18:20:36;3.08;;;2.78;;
29848;SDS011;16728;50.832;5.590;2024-03-02T18:26:43;2.88;;;2.05;;
29848;SDS011;16728;50.832;5.590;2024-03-02T18:29:45;3.10;;;2.75;;
29848;SDS011;16728;50.832;5.590;2024-03-02T18:32:47;9.77;;;8.70;;
29848;SDS011;16728;50.832;5.590;2024-03-02T18:35:49;13.73;;;12.27;;
29848;SDS011;16728;50.832;5.590;2024-03-02T18:38:55;17.23;;;15.43;;
29848;SDS011;16728;50.832;5.590;2024-03-02T18:42:00;17.33;;;15.55;;
29848;SDS011;16728;50.832;5.590;2024-03-02T18:45:03;7.73;;;7.03;;
29848;SDS011;16728;50.832;5.590;2024-03-02T18:48:06;3.22;;;2.65;;
29848;SDS011;16728;50.832;5.590;2024-03-02T18:51:10;1.67;;;1.55;;
29848;SDS011;16728;50.832;5.590;2024-03-02T18:54:12;1.52;;;1.42;;
29848;SDS011;16728;50.832;5.590;2024-03-02T18:57:15;1.58;;;1.30;;
29848;SDS011;16728;50.832;5.590;2024-03-02T19:00:17;1.70;;;1.27;;
29848;SDS011;16728;50.832;5.590;2024-03-02T19:03:27;1.67;;;1.08;;
29848;SDS011;16728;50.832;5.590;2024-03-02T19:06:30;1.30;;;1.20;;
29848;SDS011;16728;50.832;5.590;2024-03-02T19:09:32;2.15;;;1.45;;
29848;SDS011;16728;50.832;5.590;2024-03-02T19:12:37;5.22;;;4.10;;
29848;SDS011;16728;50.832;5.590;2024-03-02T19:15:42;8.13;;;4.55;;